Time;durP1;ratioP1;P1;durP2;ratioP2;P2;SDS_P1;SDS_P2;PMS_P1;PMS_P2;Temp;Humidity;BMP_temperature;BMP_pressure;BME280_temperature;BME280_humidity;BME280_pressure;Samples;Min_cycle;Max_cycle;Signal;HPM_P1;HPM_P2
2023/02/22 00:01:01;;;;;;;46.88;23.08;;;7.30;99.90;;;;;;6220404;23;20006;-91
2023/02/22 00:03:31;;;;;;;55.25;25.15;;;7.20;99.90;;;;;;6220838;23;20146;-92
2023/02/22 00:06:03;;;;;;;53.05;26.02;;;7.30;99.90;;;;;;6221463;23;20000;-91
2023/02/22 00:08:31;;;;;;;52.28;23.95;;;7.30;99.90;;;;;;6220678;23;20012;-92
2023/02/22 00:11:07;;;;;;;46.30;23.05;;;7.20;99.90;;;;;;6220494;23;20012;-93
2023/02/22 00:13:33;;;;;;;49.13;23.65;;;7.20;99.90;;;;;;6221316;23;20012;-92
2023/02/22 00:15:59;;;;;;;49.85;23.90;;;7.20;99.90;;;;;;6220847;23;20016;-92
2023/02/22 00:18:28;;;;;;;46.38;23.20;;;7.20;99.90;;;;;;6220799;23;20070;-93
2023/02/22 00:20:58;;;;;;;49.80;24.70;;;7.20;99.90;;;;;;6221172;23;20004;-93
2023/02/22 00:23:27;;;;;;;43.10;21.42;;;7.20;99.90;;;;;;6221103;23;20016;-91
2023/02/22 00:25:54;;;;;;;43.40;21.15;;;7.20;99.90;;;;;;6221424;23;20497;-93
2023/02/22 00:28:22;;;;;;;47.72;24.13;;;7.20;99.90;;;;;;6247069;23;20004;-93
2023/02/22 00:30:49;;;;;;;47.75;22.95;;;7.20;99.90;;;;;;6221291;23;20008;-93
2023/02/22 00:33:15;;;;;;;55.28;26.73;;;7.20;99.90;;;;;;6220984;23;20014;-92
2023/02/22 00:35:44;;;;;;;43.95;22.17;;;7.30;99.90;;;;;;6221070;23;20000;-93
2023/02/22 00:38:11;;;;;;;46.42;23.23;;;7.20;99.90;;;;;;6220817;23;20008;-94
2023/02/22 00:40:39;;;;;;;46.17;22.00;;;7.30;99.90;;;;;;6221020;23;20004;-93
2023/02/22 00:43:05;;;;;;;44.63;22.52;;;7.30;99.90;;;;;;6220948;23;20042;-94
2023/02/22 00:45:32;;;;;;;42.15;20.73;;;7.20;99.90;;;;;;6221102;23;20008;-94
2023/02/22 00:47:59;;;;;;;36.92;20.13;;;7.20;99.90;;;;;;6220828;23;20070;-92
2023/02/22 00:50:26;;;;;;;43.88;21.17;;;7.30;99.90;;;;;;6222891;23;20004;-93
2023/02/22 00:52:53;;;;;;;40.20;20.50;;;7.30;99.90;;;;;;6223394;23;20000;-94
2023/02/22 00:55:27;;;;;;;38.00;19.02;;;7.30;99.90;;;;;;6228650;23;20012;-91
2023/02/22 00:57:54;;;;;;;37.47;18.85;;;7.30;99.90;;;;;;6244875;23;20022;-91
2023/02/22 01:00:47;;;;;;;40.17;19.67;;;7.30;99.90;;;;;;6244424;23;20067;-91
2023/02/22 01:03:14;;;;;;;40.92;21.33;;;7.40;99.90;;;;;;6224207;23;20016;-93
2023/02/22 01:05:40;;;;;;;42.60;20.67;;;7.40;99.90;;;;;;6222472;23;20000;-93
2023/02/22 01:08:08;;;;;;;38.53;19.73;;;7.40;99.90;;;;;;6221681;23;20034;-92
2023/02/22 01:10:35;;;;;;;40.13;18.80;;;7.50;99.90;;;;;;6215677;23;20090;-92
2023/02/22 01:13:07;;;;;;;37.00;20.00;;;7.40;99.90;;;;;;6216430;23;20419;-91
2023/02/22 01:15:35;;;;;;;39.95;20.55;;;7.50;99.90;;;;;;6216153;23;20382;-93
2023/02/22 01:18:01;;;;;;;41.53;20.02;;;7.40;99.90;;;;;;6217606;23;20004;-92
2023/02/22 01:20:30;;;;;;;41.97;20.92;;;7.50;99.90;;;;;;6216238;23;20008;-92
2023/02/22 01:22:58;;;;;;;39.53;20.23;;;7.50;99.90;;;;;;6219580;23;20009;-92
2023/02/22 01:25:26;;;;;;;42.33;21.33;;;7.50;99.90;;;;;;6215942;23;20028;-91
2023/02/22 01:27:53;;;;;;;41.53;20.63;;;7.50;99.90;;;;;;6216193;23;20039;-92
2023/02/22 01:30:22;;;;;;;37.88;19.27;;;7.50;99.90;;;;;;6216541;23;20008;-91
2023/02/22 01:32:49;;;;;;;51.28;22.02;;;7.40;99.90;;;;;;6215527;23;20012;-89
2023/02/22 01:35:18;;;;;;;38.88;20.73;;;7.40;99.90;;;;;;6214955;23;20092;-91
2023/02/22 01:37:44;;;;;;;37.10;17.45;;;7.40;99.90;;;;;;6215436;23;20005;-94
2023/02/22 01:40:17;;;;;;;42.53;20.42;;;7.40;99.90;;;;;;6216113;23;20444;-91
2023/02/22 01:42:43;;;;;;;39.60;20.48;;;7.30;99.90;;;;;;6215671;23;20348;-93
2023/02/22 01:45:34;;;;;;;40.42;20.77;;;7.40;99.90;;;;;;6215528;23;20064;-92
2023/02/22 01:48:15;;;;;;;34.13;17.40;;;7.30;99.90;;;;;;6215219;23;20001;-93
2023/02/22 01:50:55;;;;;;;37.72;18.40;;;7.30;99.90;;;;;;6215419;23;20004;-89
2023/02/22 01:53:30;;;;;;;34.53;18.85;;;7.30;99.90;;;;;;6215179;23;20016;-91
2023/02/22 01:55:57;;;;;;;27.45;15.07;;;7.30;99.90;;;;;;6214329;23;20060;-92
2023/02/22 01:58:25;;;;;;;34.78;16.20;;;7.30;99.90;;;;;;6214926;23;20000;-92
2023/02/22 02:00:50;;;;;;;31.33;15.75;;;7.30;99.90;;;;;;6214762;23;20011;-91
2023/02/22 02:03:27;;;;;;;31.75;16.25;;;7.20;99.90;;;;;;6213424;23;20052;-92
2023/02/22 02:05:57;;;;;;;30.15;14.90;;;7.20;99.90;;;;;;6215453;23;20440;-91
2023/02/22 02:08:35;;;;;;;32.00;16.38;;;7.10;99.90;;;;;;6214724;23;20502;-90
2023/02/22 02:11:03;;;;;;;30.23;14.55;;;7.10;99.90;;;;;;6213655;23;20036;-92
2023/02/22 02:13:29;;;;;;;33.60;15.50;;;7.10;99.90;;;;;;6213734;23;20005;-91
2023/02/22 02:15:55;;;;;;;32.03;15.35;;;7.00;99.90;;;;;;6214649;23;20007;-91
2023/02/22 02:18:22;;;;;;;34.97;16.02;;;7.10;99.90;;;;;;6214809;23;20008;-91
2023/02/22 02:21:10;;;;;;;29.23;14.68;;;7.00;99.90;;;;;;6215543;23;20015;-92
2023/02/22 02:24:07;;;;;;;30.13;13.95;;;7.00;99.90;;;;;;6214940;23;20024;-92
2023/02/22 02:26:55;;;;;;;30.92;15.15;;;7.00;99.90;;;;;;6214437;23;20058;-91
2023/02/22 02:29:46;;;;;;;33.25;15.07;;;6.90;99.90;;;;;;6214441;23;20068;-93
2023/02/22 02:32:20;;;;;;;30.27;13.55;;;6.90;99.90;;;;;;6215139;23;20027;-92
2023/02/22 02:35:11;;;;;;;27.38;12.90;;;6.90;99.90;;;;;;6216366;23;20009;-92
2023/02/22 02:37:55;;;;;;;22.55;11.55;;;6.90;99.90;;;;;;6216185;23;20030;-91
2023/02/22 02:40:35;;;;;;;19.05;10.13;;;6.90;99.90;;;;;;6216237;23;20075;-91
2023/02/22 02:43:28;;;;;;;14.98;8.63;;;6.80;99.90;;;;;;6215810;23;20499;-91
2023/02/22 02:46:06;;;;;;;16.17;8.85;;;6.80;99.90;;;;;;6216048;23;20043;-92
2023/02/22 02:48:35;;;;;;;17.48;10.05;;;6.70;99.90;;;;;;6219075;23;20011;-91
2023/02/22 02:51:04;;;;;;;22.38;10.68;;;6.70;99.90;;;;;;6218405;23;20032;-92
2023/02/22 02:53:36;;;;;;;15.90;8.60;;;6.70;99.90;;;;;;6216722;23;20012;-93
2023/02/22 02:56:02;;;;;;;17.00;8.77;;;6.70;99.90;;;;;;6216234;23;20004;-91
2023/02/22 02:58:28;;;;;;;13.85;8.55;;;6.70;99.90;;;;;;6216727;23;20005;-93
2023/02/22 03:00:57;;;;;;;21.13;8.45;;;6.70;99.90;;;;;;6217077;23;19997;-92
2023/02/22 03:04:01;;;;;;;14.03;8.20;;;6.60;99.90;;;;;;6216334;23;20020;-92
2023/02/22 03:06:46;;;;;;;12.48;7.90;;;6.60;99.90;;;;;;6219053;23;20012;-92
2023/02/22 03:09:34;;;;;;;12.35;7.85;;;6.60;99.90;;;;;;6222385;23;20488;-93
2023/02/22 03:12:26;;;;;;;15.18;8.32;;;6.60;99.90;;;;;;6214952;23;20020;-93
2023/02/22 03:15:04;;;;;;;14.55;8.52;;;6.60;99.90;;;;;;6215463;23;20067;-92
2023/02/22 03:17:40;;;;;;;11.73;7.18;;;6.60;99.90;;;;;;6215137;23;20001;-92
2023/02/22 03:20:17;;;;;;;14.50;8.23;;;6.60;99.90;;;;;;6216013;23;20009;-93
2023/02/22 03:22:57;;;;;;;12.63;6.97;;;6.60;99.90;;;;;;6215534;23;20015;-92
2023/02/22 03:25:59;;;;;;;13.02;7.57;;;6.60;99.90;;;;;;6215577;23;19997;-92
2023/02/22 03:28:26;;;;;;;12.57;7.63;;;6.50;99.90;;;;;;6189966;23;20016;-91
2023/02/22 03:31:21;;;;;;;12.07;6.78;;;6.60;99.90;;;;;;6215364;23;20011;-91
2023/02/22 03:33:54;;;;;;;10.85;6.72;;;6.50;99.90;;;;;;6214075;23;20409;-91
2023/02/22 03:36:29;;;;;;;14.02;7.10;;;6.50;99.90;;;;;;6215204;23;20012;-93
2023/02/22 03:38:59;;;;;;;10.95;6.63;;;6.40;99.90;;;;;;6215769;23;20051;-92
2023/02/22 03:41:27;;;;;;;11.98;6.90;;;6.40;99.90;;;;;;6214588;23;20008;-93
2023/02/22 03:44:07;;;;;;;10.65;6.28;;;6.40;99.90;;;;;;6215836;23;20004;-91
2023/02/22 03:46:35;;;;;;;13.27;7.32;;;6.40;99.90;;;;;;6215210;23;20091;-93
2023/02/22 03:49:18;;;;;;;11.63;6.95;;;6.40;99.90;;;;;;6216902;23;20435;-92
2023/02/22 03:51:45;;;;;;;12.95;6.78;;;6.40;99.90;;;;;;6215339;23;20009;-92
2023/02/22 03:54:15;;;;;;;14.35;7.85;;;6.40;99.90;;;;;;6215839;23;20064;-93
2023/02/22 03:57:11;;;;;;;12.85;7.50;;;6.40;99.90;;;;;;6215735;23;20028;-93
2023/02/22 03:59:36;;;;;;;15.32;8.05;;;6.40;99.90;;;;;;6212316;23;20005;-93
2023/02/22 04:02:02;;;;;;;12.60;6.80;;;6.40;99.90;;;;;;6215682;23;20440;-93
2023/02/22 04:04:28;;;;;;;19.95;10.18;;;6.40;99.90;;;;;;6215507;23;20035;-94
2023/02/22 04:06:53;;;;;;;18.40;9.48;;;6.40;99.90;;;;;;6215517;23;20091;-92
2023/02/22 04:09:20;;;;;;;18.10;9.35;;;6.40;99.90;;;;;;6215583;23;20001;-94
2023/02/22 04:11:45;;;;;;;16.10;7.53;;;6.40;99.90;;;;;;6215217;23;20017;-93
2023/02/22 04:14:12;;;;;;;10.00;6.53;;;6.40;99.90;;;;;;6215608;23;20015;-93
2023/02/22 04:16:38;;;;;;;12.30;7.00;;;6.40;99.90;;;;;;6217621;23;20012;-93
2023/02/22 04:19:05;;;;;;;12.05;5.85;;;6.40;99.90;;;;;;6217960;23;20087;-93
2023/02/22 04:21:31;;;;;;;12.23;6.25;;;6.40;99.90;;;;;;6215769;23;20004;-93
2023/02/22 04:23:57;;;;;;;12.50;6.50;;;6.40;99.90;;;;;;6215430;23;20043;-93
2023/02/22 04:26:22;;;;;;;13.88;6.68;;;6.40;99.90;;;;;;6216996;23;20005;-92
2023/02/22 04:28:48;;;;;;;14.00;6.25;;;6.40;99.90;;;;;;6215776;23;20036;-93
2023/02/22 04:31:15;;;;;;;10.50;6.25;;;6.40;99.90;;;;;;6215161;23;20471;-92
2023/02/22 04:33:41;;;;;;;13.75;6.07;;;6.40;99.90;;;;;;6215015;23;20005;-93
2023/02/22 04:36:07;;;;;;;11.30;5.88;;;6.40;99.90;;;;;;6214878;23;20005;-93
2023/02/22 04:38:33;;;;;;;12.93;6.45;;;6.40;99.90;;;;;;6214960;23;20059;-92
2023/02/22 04:40:58;;;;;;;12.27;6.18;;;6.40;99.90;;;;;;6215109;23;20008;-93
2023/02/22 04:43:24;;;;;;;11.43;6.55;;;6.50;99.90;;;;;;6215119;23;20016;-90
2023/02/22 04:45:50;;;;;;;11.23;7.20;;;6.50;99.90;;;;;;6214763;23;20309;-92
2023/02/22 04:48:15;;;;;;;12.18;6.55;;;6.50;99.90;;;;;;6214488;23;20063;-91
2023/02/22 04:50:41;;;;;;;12.27;6.05;;;6.50;99.90;;;;;;6214348;23;20004;-91
2023/02/22 04:53:07;;;;;;;11.30;6.60;;;6.50;99.90;;;;;;6214205;23;20012;-92
2023/02/22 04:55:33;;;;;;;12.30;7.00;;;6.50;99.90;;;;;;6214778;23;20011;-92
2023/02/22 04:57:58;;;;;;;12.43;6.25;;;6.60;99.90;;;;;;6214867;23;20015;-91
2023/02/22 05:00:24;;;;;;;10.23;6.10;;;6.60;99.90;;;;;;6215747;23;20015;-92
2023/02/22 05:02:50;;;;;;;13.82;6.53;;;6.50;99.90;;;;;;6215853;23;20012;-92
2023/02/22 05:05:20;;;;;;;11.77;6.10;;;6.50;99.90;;;;;;6214705;23;20088;-93
2023/02/22 05:07:47;;;;;;;11.57;6.00;;;6.50;99.90;;;;;;6214527;23;20429;-92
2023/02/22 05:10:13;;;;;;;12.35;6.45;;;6.50;99.90;;;;;;6216224;23;20050;-91
2023/02/22 05:12:39;;;;;;;12.15;6.75;;;6.50;99.90;;;;;;6219865;23;20016;-91
2023/02/22 05:15:07;;;;;;;13.07;7.00;;;6.40;99.90;;;;;;6219591;23;20000;-91
2023/02/22 05:17:33;;;;;;;11.98;6.40;;;6.50;99.90;;;;;;6219337;23;20011;-91
2023/02/22 05:20:00;;;;;;;10.85;5.65;;;6.40;99.90;;;;;;6220441;23;20090;-94
2023/02/22 05:22:25;;;;;;;12.07;6.55;;;6.50;99.90;;;;;;6221050;23;20023;-92
2023/02/22 05:24:51;;;;;;;9.48;5.70;;;6.50;99.90;;;;;;6219735;23;20004;-94
2023/02/22 05:27:18;;;;;;;13.60;6.55;;;6.40;99.90;;;;;;6220118;23;20030;-92
2023/02/22 05:29:43;;;;;;;10.82;6.18;;;6.40;99.90;;;;;;6219740;23;20000;-92
2023/02/22 05:32:11;;;;;;;9.70;5.90;;;6.40;99.90;;;;;;6219024;23;20099;-92
2023/02/22 05:34:37;;;;;;;9.70;5.47;;;6.40;99.90;;;;;;6218880;23;20032;-92
2023/02/22 05:37:03;;;;;;;10.73;6.53;;;6.40;99.90;;;;;;6245361;23;20008;-92
2023/02/22 05:39:30;;;;;;;12.88;5.97;;;6.40;99.90;;;;;;6218714;23;20062;-93
2023/02/22 05:41:56;;;;;;;8.75;5.90;;;6.40;99.90;;;;;;6218509;23;20019;-91
2023/02/22 05:44:22;;;;;;;11.75;6.28;;;6.40;99.90;;;;;;6226083;23;20000;-92
2023/02/22 05:46:48;;;;;;;13.13;5.50;;;6.40;99.90;;;;;;6232227;23;20050;-92
2023/02/22 05:49:13;;;;;;;10.00;5.68;;;6.40;99.90;;;;;;6229040;23;20010;-93
2023/02/22 05:51:39;;;;;;;12.90;6.28;;;6.40;99.90;;;;;;6223567;23;20139;-92
2023/02/22 05:54:05;;;;;;;8.88;5.50;;;6.40;99.90;;;;;;6222934;23;20459;-93
2023/02/22 05:56:30;;;;;;;13.38;6.18;;;6.40;99.90;;;;;;6220452;23;20027;-91
2023/02/22 05:58:57;;;;;;;10.65;6.45;;;6.50;99.90;;;;;;6220494;23;20070;-93
2023/02/22 06:01:23;;;;;;;12.43;6.32;;;6.50;99.90;;;;;;6220316;23;20004;-91
2023/02/22 06:03:50;;;;;;;9.30;6.03;;;6.50;99.90;;;;;;6219633;23;20070;-92
2023/02/22 06:06:17;;;;;;;11.85;6.82;;;6.50;99.90;;;;;;6218629;23;20000;-92
2023/02/22 06:08:43;;;;;;;10.82;6.05;;;6.50;99.90;;;;;;6219208;23;20008;-93
2023/02/22 06:11:08;;;;;;;10.40;5.88;;;6.50;99.90;;;;;;6220199;23;20020;-93
2023/02/22 06:13:35;;;;;;;10.73;6.28;;;6.60;99.90;;;;;;6220670;23;20030;-92
2023/02/22 06:16:01;;;;;;;12.13;6.43;;;6.60;99.90;;;;;;6220706;23;20004;-92
2023/02/22 06:18:29;;;;;;;11.57;6.47;;;6.60;99.90;;;;;;6221388;23;20083;-92
2023/02/22 06:20:56;;;;;;;10.90;6.25;;;6.60;99.90;;;;;;6222120;23;20012;-91
2023/02/22 06:23:22;;;;;;;12.95;6.55;;;6.60;99.90;;;;;;6222305;23;20015;-92
2023/02/22 06:25:47;;;;;;;13.77;7.68;;;6.60;99.90;;;;;;6222484;23;20001;-92
2023/02/22 06:28:14;;;;;;;14.27;6.47;;;6.60;99.90;;;;;;6222302;23;20096;-92
2023/02/22 06:30:41;;;;;;;11.20;6.40;;;6.50;99.90;;;;;;6222808;23;20018;-92
2023/02/22 06:33:08;;;;;;;15.10;7.93;;;6.50;99.90;;;;;;6223155;23;20389;-91
2023/02/22 06:35:33;;;;;;;13.50;7.30;;;6.60;99.90;;;;;;6222016;23;20055;-92
2023/02/22 06:37:59;;;;;;;13.40;6.05;;;6.60;99.90;;;;;;6221576;23;20004;-92
2023/02/22 06:40:28;;;;;;;12.85;7.13;;;6.60;99.90;;;;;;6221447;23;20020;-92
2023/02/22 06:42:55;;;;;;;14.45;7.18;;;6.60;99.90;;;;;;6221686;23;20016;-92
2023/02/22 06:45:21;;;;;;;14.02;6.60;;;6.60;99.90;;;;;;6221257;23;20440;-92
2023/02/22 06:47:50;;;;;;;14.07;7.22;;;6.60;99.90;;;;;;6221119;23;20004;-92
2023/02/22 06:50:25;;;;;;;11.25;6.97;;;6.60;99.90;;;;;;6220727;23;20003;-93
2023/02/22 06:52:51;;;;;;;12.88;6.82;;;6.60;99.90;;;;;;6220794;23;20010;-92
2023/02/22 06:55:19;;;;;;;15.45;6.50;;;6.60;99.90;;;;;;6220861;23;20566;-92
2023/02/22 06:57:45;;;;;;;11.30;7.10;;;6.60;99.90;;;;;;6220834;23;20054;-93
2023/02/22 07:00:11;;;;;;;13.02;7.25;;;6.60;99.90;;;;;;6221489;23;20008;-93
2023/02/22 07:02:37;;;;;;;11.98;6.93;;;6.60;99.90;;;;;;6221115;23;20508;-91
2023/02/22 07:05:03;;;;;;;12.80;7.18;;;6.60;99.90;;;;;;6225534;23;20074;-90
2023/02/22 07:07:28;;;;;;;12.75;7.60;;;6.60;99.90;;;;;;6223696;23;20004;-91
2023/02/22 07:09:54;;;;;;;13.05;6.60;;;6.60;99.90;;;;;;6221024;23;20000;-90
2023/02/22 07:12:20;;;;;;;14.45;6.82;;;6.60;99.90;;;;;;6226509;23;20039;-92
2023/02/22 07:14:46;;;;;;;11.48;6.95;;;6.60;99.90;;;;;;6223147;23;20004;-92
2023/02/22 07:17:11;;;;;;;10.95;7.13;;;6.60;99.90;;;;;;6221810;23;20050;-92
2023/02/22 07:19:37;;;;;;;12.85;7.55;;;6.60;99.90;;;;;;6221667;23;19997;-92
2023/02/22 07:22:03;;;;;;;15.27;8.43;;;6.60;99.90;;;;;;6221420;23;20008;-92
2023/02/22 07:24:28;;;;;;;16.92;7.57;;;6.50;99.90;;;;;;6221722;23;20023;-91
2023/02/22 07:26:54;;;;;;;19.85;8.80;;;6.60;99.90;;;;;;6221700;23;20034;-92
2023/02/22 07:29:21;;;;;;;16.63;8.90;;;6.60;99.90;;;;;;6221222;23;20008;-93
2023/02/22 07:31:47;;;;;;;14.00;7.50;;;6.60;99.90;;;;;;6220211;23;20016;-92
2023/02/22 07:34:13;;;;;;;16.42;8.10;;;6.60;99.90;;;;;;6221277;23;20009;-92
2023/02/22 07:36:39;;;;;;;12.93;7.05;;;6.60;99.90;;;;;;6219992;23;20095;-94
2023/02/22 07:39:07;;;;;;;15.38;7.68;;;6.50;99.90;;;;;;6220245;23;20004;-92
2023/02/22 07:41:33;;;;;;;16.27;7.10;;;6.60;99.90;;;;;;6221864;23;20032;-92
2023/02/22 07:43:59;;;;;;;17.70;8.25;;;6.50;99.90;;;;;;6219668;23;20008;-92
2023/02/22 07:46:25;;;;;;;15.35;8.38;;;6.60;99.90;;;;;;6219916;23;20008;-93
2023/02/22 07:48:53;;;;;;;14.77;7.82;;;6.60;99.90;;;;;;6221289;23;20008;-91
2023/02/22 07:51:19;;;;;;;21.60;7.68;;;6.60;99.90;;;;;;6218943;23;20001;-94
2023/02/22 07:53:45;;;;;;;17.85;7.60;;;6.60;99.90;;;;;;6220357;23;20008;-91
2023/02/22 07:56:11;;;;;;;12.50;7.15;;;6.60;99.90;;;;;;6221122;23;20004;-91
2023/02/22 07:58:36;;;;;;;17.35;7.35;;;6.60;99.90;;;;;;6222493;23;20313;-91
2023/02/22 08:01:03;;;;;;;14.45;6.47;;;6.60;99.90;;;;;;6222454;23;20451;-93
2023/02/22 08:03:33;;;;;;;12.75;6.28;;;6.60;99.90;;;;;;6228012;23;20024;-91
2023/02/22 08:05:59;;;;;;;12.93;6.10;;;6.70;99.90;;;;;;6238827;23;20000;-91
2023/02/22 08:08:25;;;;;;;13.02;6.40;;;6.70;99.90;;;;;;6242581;23;20427;-90
2023/02/22 08:10:51;;;;;;;10.80;5.30;;;6.70;99.90;;;;;;6238246;23;20003;-91
2023/02/22 08:13:18;;;;;;;9.75;5.78;;;6.70;99.90;;;;;;6241057;23;20008;-91
2023/02/22 08:15:45;;;;;;;9.75;4.50;;;6.70;99.90;;;;;;6241081;23;20004;-90
2023/02/22 08:18:17;;;;;;;6.53;4.30;;;6.80;99.90;;;;;;6231017;23;20007;-90
2023/02/22 08:20:44;;;;;;;7.50;3.95;;;6.80;99.90;;;;;;6221520;23;20091;-91
2023/02/22 08:23:11;;;;;;;6.18;4.03;;;6.80;99.90;;;;;;6220894;23;20031;-91
2023/02/22 08:25:37;;;;;;;9.75;4.50;;;6.80;99.90;;;;;;6220860;23;20008;-91
2023/02/22 08:28:09;;;;;;;7.57;4.20;;;6.90;99.90;;;;;;6221252;23;20050;-91
2023/02/22 08:30:36;;;;;;;9.00;4.47;;;6.90;99.90;;;;;;6220302;23;20004;-89
2023/02/22 08:33:03;;;;;;;9.80;4.97;;;6.90;99.90;;;;;;6221646;23;20019;-91
2023/02/22 08:35:31;;;;;;;7.03;4.72;;;6.90;99.90;;;;;;6221012;23;20008;-91
2023/02/22 08:38:07;;;;;;;7.45;4.80;;;7.00;99.90;;;;;;6221393;23;20451;-90
2023/02/22 08:40:35;;;;;;;8.15;4.90;;;7.00;99.90;;;;;;6225125;23;20046;-89
2023/02/22 08:43:01;;;;;;;7.05;4.78;;;7.00;99.90;;;;;;6221497;23;20024;-93
2023/02/22 08:45:27;;;;;;;8.48;5.43;;;7.00;99.90;;;;;;6217579;23;20010;-90
2023/02/22 08:47:53;;;;;;;12.82;7.50;;;7.10;99.90;;;;;;6220063;23;20008;-90
2023/02/22 08:50:25;;;;;;;9.35;5.28;;;7.00;99.90;;;;;;6219955;23;20012;-90
2023/02/22 08:52:52;;;;;;;7.97;4.78;;;7.10;99.90;;;;;;6220027;23;20457;-88
2023/02/22 08:55:21;;;;;;;6.47;4.07;;;7.10;99.90;;;;;;6220254;23;20074;-90
2023/02/22 08:57:47;;;;;;;6.82;4.25;;;7.10;99.90;;;;;;6220028;23;20008;-89
2023/02/22 09:00:14;;;;;;;5.53;3.70;;;7.10;99.90;;;;;;6220041;23;20004;-90
2023/02/22 09:02:40;;;;;;;6.78;4.47;;;7.10;99.90;;;;;;6220394;23;20019;-89
2023/02/22 09:05:06;;;;;;;5.65;4.00;;;7.10;99.90;;;;;;6220411;23;20004;-89
2023/02/22 09:07:32;;;;;;;5.22;3.70;;;7.10;99.90;;;;;;6220199;23;20013;-89
2023/02/22 09:09:58;;;;;;;5.10;3.67;;;7.00;99.90;;;;;;6220457;23;20011;-90
2023/02/22 09:12:23;;;;;;;9.10;3.95;;;7.00;99.90;;;;;;6219976;23;20026;-89
2023/02/22 09:14:49;;;;;;;9.98;4.65;;;7.00;99.90;;;;;;6219949;23;20008;-89
2023/02/22 09:17:14;;;;;;;6.50;4.40;;;7.00;99.90;;;;;;6247636;23;20363;-89
2023/02/22 09:19:40;;;;;;;7.07;4.97;;;7.00;99.90;;;;;;6220526;23;20008;-90
2023/02/22 09:22:06;;;;;;;6.97;4.93;;;6.90;99.90;;;;;;6219779;23;20004;-90
2023/02/22 09:24:32;;;;;;;7.75;4.70;;;6.90;99.90;;;;;;6220047;23;20012;-91
2023/02/22 09:26:58;;;;;;;8.93;4.65;;;6.90;99.90;;;;;;6220185;23;20011;-90
2023/02/22 09:29:26;;;;;;;7.80;4.80;;;6.90;99.90;;;;;;6219964;23;20348;-90
2023/02/22 09:31:54;;;;;;;8.63;4.50;;;6.90;99.90;;;;;;6220437;23;20020;-90
2023/02/22 09:34:28;;;;;;;7.85;4.53;;;6.90;99.90;;;;;;6220396;23;20000;-90
2023/02/22 09:36:57;;;;;;;6.55;4.38;;;6.90;99.90;;;;;;6220862;23;20039;-91
2023/02/22 09:39:23;;;;;;;8.93;3.67;;;6.90;99.90;;;;;;6221054;23;20000;-91
2023/02/22 09:41:59;;;;;;;13.35;3.70;;;6.90;99.90;;;;;;6220576;23;20094;-91
2023/02/22 09:44:54;;;;;;;3.22;2.30;;;6.90;99.90;;;;;;6221682;23;20004;-90
2023/02/22 09:47:32;;;;;;;3.53;1.10;;;7.00;99.90;;;;;;6222300;23;20003;-89
2023/02/22 09:50:21;;;;;;;2.05;0.50;;;7.10;99.90;;;;;;6221863;23;20012;-90
2023/02/22 09:53:16;;;;;;;4.03;0.88;;;7.10;99.90;;;;;;6220779;23;20071;-90
2023/02/22 09:55:47;;;;;;;1.70;0.50;;;7.10;99.90;;;;;;6246602;23;20014;-91
2023/02/22 09:58:37;;;;;;;2.90;0.60;;;7.20;99.90;;;;;;6219975;23;20138;-90
2023/02/22 10:01:38;;;;;;;1.58;0.77;;;7.20;99.90;;;;;;6219966;23;20008;-90
2023/02/22 10:04:37;;;;;;;16.17;1.45;;;7.20;99.90;;;;;;6221247;23;20324;-90
2023/02/22 10:07:12;;;;;;;4.65;1.13;;;7.20;99.90;;;;;;6220078;23;20004;-91
2023/02/22 10:09:41;;;;;;;4.88;1.70;;;7.20;99.90;;;;;;6219006;23;20055;-91
2023/02/22 10:12:38;;;;;;;3.30;1.95;;;7.20;99.90;;;;;;6219946;23;20016;-91
2023/02/22 10:15:20;;;;;;;4.07;2.80;;;7.20;99.90;;;;;;6218062;23;20011;-90
2023/02/22 10:18:05;;;;;;;6.07;3.00;;;7.10;99.90;;;;;;6218974;23;20089;-91
2023/02/22 10:21:09;;;;;;;5.18;2.35;;;7.10;99.90;;;;;;6219871;23;20008;-92
2023/02/22 10:24:09;;;;;;;3.72;2.40;;;7.10;99.90;;;;;;6219373;23;20099;-92
2023/02/22 10:26:39;;;;;;;3.10;2.05;;;7.20;99.90;;;;;;6219277;23;20378;-91
2023/02/22 10:29:35;;;;;;;1.65;1.50;;;7.20;99.90;;;;;;6219091;23;20019;-93
2023/02/22 10:32:03;;;;;;;2.28;1.67;;;7.30;99.90;;;;;;6207135;23;20582;-93
2023/02/22 10:34:38;;;;;;;1.50;1.00;;;7.30;99.90;;;;;;6219429;23;20007;-93
2023/02/22 10:37:26;;;;;;;3.03;0.90;;;7.30;99.90;;;;;;6219017;23;20091;-92
2023/02/22 10:40:22;;;;;;;1.05;0.40;;;7.40;99.90;;;;;;6219527;23;20004;-94
2023/02/22 10:42:49;;;;;;;1.80;0.57;;;7.50;99.90;;;;;;6218971;23;20138;-93
2023/02/22 10:45:21;;;;;;;2.20;0.40;;;7.60;99.90;;;;;;6220034;23;20004;-94
2023/02/22 10:47:48;;;;;;;1.63;0.70;;;7.70;99.90;;;;;;6219704;23;20000;-94
2023/02/22 10:50:14;;;;;;;3.45;0.47;;;7.80;99.90;;;;;;6220183;23;20004;-93
2023/02/22 10:52:40;;;;;;;1.92;0.40;;;7.90;99.90;;;;;;6219282;23;20439;-94
2023/02/22 10:55:12;;;;;;;1.88;0.40;;;7.90;99.90;;;;;;6219929;23;20034;-93
2023/02/22 10:57:38;;;;;;;16.30;0.80;;;7.90;99.90;;;;;;6221514;23;20004;-93
2023/02/22 11:00:37;;;;;;;4.70;0.60;;;7.80;99.90;;;;;;6221963;23;20466;-93
2023/02/22 11:03:21;;;;;;;4.88;0.70;;;7.70;99.90;;;;;;6143707;23;20455;-90
2023/02/22 11:05:48;;;;;;;8.48;2.08;;;7.70;99.90;;;;;;6224310;23;20011;-94
2023/02/22 11:08:19;;;;;;;3.20;1.05;;;7.60;99.90;;;;;;6222728;23;20335;-91
2023/02/22 11:10:46;;;;;;;3.25;0.85;;;7.60;99.90;;;;;;6248809;23;20008;-92
2023/02/22 11:13:25;;;;;;;9.23;1.02;;;7.70;99.90;;;;;;6223245;23;20008;-92
2023/02/22 11:15:53;;;;;;;2.60;0.73;;;7.80;99.90;;;;;;6222154;23;20011;-92
2023/02/22 11:18:32;;;;;;;7.18;0.55;;;7.90;99.90;;;;;;6221638;23;20011;-93
2023/02/22 11:21:21;;;;;;;25.17;2.05;;;8.00;99.90;;;;;;6222637;23;20091;-91
2023/02/22 11:23:49;;;;;;;11.90;1.40;;;8.10;99.90;;;;;;6248992;23;20008;-91
2023/02/22 11:26:19;;;;;;;4.05;0.57;;;8.20;99.90;;;;;;6221438;23;20011;-92
2023/02/22 11:28:54;;;;;;;4.72;0.63;;;8.20;99.90;;;;;;6221512;23;20012;-92
2023/02/22 11:31:26;;;;;;;0.45;0.30;;;8.20;99.90;;;;;;6222289;23;20442;-93
2023/02/22 11:33:56;;;;;;;0.45;0.40;;;8.30;99.90;;;;;;6222098;23;20090;-93
2023/02/22 11:36:39;;;;;;;1.30;0.52;;;8.40;99.90;;;;;;6221492;23;20059;-91
2023/02/22 11:39:23;;;;;;;3.90;0.50;;;8.60;99.90;;;;;;6221341;23;20032;-93
2023/02/22 11:41:49;;;;;;;1.92;0.63;;;8.80;99.90;;;;;;6222066;23;20012;-93
2023/02/22 11:44:22;;;;;;;1.67;0.70;;;9.00;99.90;;;;;;6221879;23;20157;-94
2023/02/22 11:46:49;;;;;;;2.00;0.50;;;9.10;99.90;;;;;;6220873;23;20008;-94
2023/02/22 11:49:16;;;;;;;2.63;0.45;;;9.10;99.90;;;;;;6221585;23;20439;-94
2023/02/22 11:52:08;;;;;;;5.00;0.80;;;9.10;99.90;;;;;;6222173;23;20497;-93
2023/02/22 11:54:37;;;;;;;3.88;0.68;;;8.90;99.90;;;;;;6221381;23;20054;-92
2023/02/22 11:57:35;;;;;;;0.88;0.50;;;8.80;99.90;;;;;;6220113;23;20004;-93
2023/02/22 12:00:23;;;;;;;1.27;0.40;;;8.90;99.90;;;;;;6220423;23;20042;-93
2023/02/22 12:03:04;;;;;;;2.20;0.50;;;9.10;99.90;;;;;;6220331;23;20043;-93
2023/02/22 12:06:13;;;;;;;21.45;1.08;;;9.40;99.90;;;;;;6220609;23;20004;-92
2023/02/22 12:09:06;;;;;;;3.03;0.50;;;9.90;99.90;;;;;;6220332;23;20067;-92
2023/02/22 12:11:46;;;;;;;1.50;0.28;;;10.20;99.90;;;;;;6220651;23;20016;-93
2023/02/22 12:14:42;;;;;;;1.35;0.43;;;10.20;99.90;;;;;;6222095;23;20095;-93
2023/02/22 12:17:26;;;;;;;1.83;0.40;;;10.20;99.90;;;;;;6220738;23;20086;-92
2023/02/22 12:19:59;;;;;;;0.70;0.45;;;10.00;99.90;;;;;;6221167;23;20079;-91
2023/02/22 12:22:33;;;;;;;3.17;0.57;;;9.80;99.90;;;;;;6220664;23;20012;-90
2023/02/22 12:25:20;;;;;;;5.13;0.52;;;9.70;99.90;;;;;;6223315;23;20012;-91
2023/02/22 12:27:51;;;;;;;1.38;0.75;;;9.40;99.90;;;;;;6221708;23;20515;-92
2023/02/22 12:30:22;;;;;;;;;;;9.20;99.90;;;;;;6222135;23;20018;-91
2023/02/22 12:33:03;;;;;;;1.52;1.05;;;9.20;99.90;;;;;;6222106;23;19900;-91
2023/02/22 12:35:41;;;;;;;3.75;1.55;;;9.10;99.90;;;;;;6222577;23;20004;-91
2023/02/22 12:38:15;;;;;;;1.10;0.60;;;9.10;99.90;;;;;;6221611;23;20102;-90
2023/02/22 12:40:55;;;;;;;2.65;0.82;;;9.10;99.90;;;;;;6223603;23;20079;-92
2023/02/22 12:43:31;;;;;;;4.05;0.60;;;9.10;99.90;;;;;;6222842;23;20009;-90
2023/02/22 12:46:06;;;;;;;2.88;0.60;;;9.00;99.90;;;;;;6227820;23;20015;-90
2023/02/22 12:48:46;;;;;;;2.22;0.50;;;8.90;99.90;;;;;;6232502;23;20034;-90
2023/02/22 12:51:33;;;;;;;4.00;0.70;;;8.90;99.90;;;;;;6232337;23;20454;-90
2023/02/22 12:54:24;;;;;;;5.40;0.45;;;8.80;99.90;;;;;;6231608;23;20094;-90
2023/02/22 12:56:50;;;;;;;;;;;8.90;99.90;;;;;;6240896;23;20008;-90
2023/02/22 12:59:32;;;;;;;0.52;0.43;;;8.90;99.90;;;;;;6225527;23;19906;-90
2023/02/22 13:02:21;;;;;;;2.28;0.60;;;9.00;99.90;;;;;;6224574;23;20004;-90
2023/02/22 13:04:47;;;;;;;1.35;0.30;;;9.00;99.90;;;;;;6224054;23;20015;-91
2023/02/22 13:07:31;;;;;;;2.38;0.60;;;9.00;99.90;;;;;;6222364;23;20059;-90
2023/02/22 13:10:25;;;;;;;3.20;0.50;;;9.00;99.90;;;;;;6222432;23;20109;-91
2023/02/22 13:13:14;;;;;;;3.10;0.35;;;8.90;99.90;;;;;;6221780;23;20059;-92